Time;durP1;ratioP1;P1;durP2;ratioP2;P2;SDS_P1;SDS_P2;PMS_P1;PMS_P2;Temp;Humidity;BMP_temperature;BMP_pressure;BME280_temperature;BME280_humidity;BME280_pressure;Samples;Min_cycle;Max_cycle;Signal;HPM_P1;HPM_P2
2023/01/21 00:01:06;;;;;;;11.85;8.48;;;;;;;;;;5053794;28;20045;-65
2023/01/21 00:03:34;;;;;;;15.10;8.90;;;;;;;;;;5055014;28;20064;-65
2023/01/21 00:06:02;;;;;;;14.43;8.55;;;;;;;;;;5055071;28;20529;-65
2023/01/21 00:08:29;;;;;;;13.50;8.90;;;;;;;;;;5054965;28;20115;-65
2023/01/21 00:10:57;;;;;;;13.27;8.85;;;;;;;;;;5054972;28;20036;-65
2023/01/21 00:13:24;;;;;;;15.32;9.55;;;;;;;;;;5054992;28;20033;-65
2023/01/21 00:15:53;;;;;;;16.75;8.80;;;;;;;;;;5055114;28;20045;-65
2023/01/21 00:18:21;;;;;;;13.07;8.60;;;;;;;;;;5054911;28;20553;-65
2023/01/21 00:20:48;;;;;;;13.57;8.93;;;;;;;;;;5054295;28;20100;-65
2023/01/21 00:23:16;;;;;;;14.38;8.93;;;;;;;;;;5061113;28;20087;-65
2023/01/21 00:25:43;;;;;;;15.57;8.95;;;;;;;;;;5074788;28;20040;-65
2023/01/21 00:28:11;;;;;;;12.70;8.80;;;;;;;;;;5074376;28;20390;-65
2023/01/21 00:30:40;;;;;;;13.65;8.25;;;;;;;;;;5073336;28;20037;-65
2023/01/21 00:33:08;;;;;;;14.55;9.15;;;;;;;;;;5073340;28;20048;-65
2023/01/21 00:35:35;;;;;;;14.77;9.18;;;;;;;;;;5074506;28;20510;-65
2023/01/21 00:38:02;;;;;;;12.90;8.52;;;;;;;;;;5074521;28;20052;-65
2023/01/21 00:40:30;;;;;;;13.55;9.00;;;;;;;;;;5074362;28;20083;-65
2023/01/21 00:42:57;;;;;;;14.43;8.60;;;;;;;;;;5074333;28;20052;-65
2023/01/21 00:45:25;;;;;;;13.80;8.93;;;;;;;;;;5074314;28;20041;-65
2023/01/21 00:47:52;;;;;;;13.10;8.73;;;;;;;;;;5074228;28;20106;-65
2023/01/21 00:50:20;;;;;;;13.57;8.57;;;;;;;;;;5074303;28;20401;-65
2023/01/21 00:52:47;;;;;;;13.68;8.70;;;;;;;;;;5074003;28;20041;-65
2023/01/21 00:55:15;;;;;;;12.73;8.25;;;;;;;;;;5074129;28;20132;-65
2023/01/21 00:57:42;;;;;;;13.98;9.45;;;;;;;;;;5074180;28;20516;-65
2023/01/21 01:00:12;;;;;;;13.55;8.55;;;;;;;;;;5072772;28;20040;-65
2023/01/21 01:02:39;;;;;;;12.80;8.20;;;;;;;;;;5074008;28;20036;-65
2023/01/21 01:05:07;;;;;;;13.45;8.68;;;;;;;;;;5073854;28;20040;-65
2023/01/21 01:07:34;;;;;;;14.13;8.68;;;;;;;;;;5073914;28;20115;-65
2023/01/21 01:10:02;;;;;;;12.98;8.48;;;;;;;;;;5073969;28;20101;-65
2023/01/21 01:12:29;;;;;;;13.25;8.52;;;;;;;;;;5073797;28;20041;-65
2023/01/21 01:14:57;;;;;;;12.77;8.55;;;;;;;;;;5073751;28;20041;-65
2023/01/21 01:17:27;;;;;;;12.00;7.90;;;;;;;;;;5073982;28;20041;-65
2023/01/21 01:19:54;;;;;;;13.23;8.50;;;;;;;;;;5073656;28;20543;-65
2023/01/21 01:22:22;;;;;;;13.05;8.48;;;;;;;;;;5073566;28;20537;-65
2023/01/21 01:24:49;;;;;;;13.88;8.70;;;;;;;;;;5073750;28;20076;-65
2023/01/21 01:27:17;;;;;;;13.63;8.48;;;;;;;;;;5072221;28;20144;-65
2023/01/21 01:29:44;;;;;;;12.05;8.27;;;;;;;;;;5073533;28;20119;-65
2023/01/21 01:32:11;;;;;;;11.63;7.72;;;;;;;;;;5072100;28;20051;-64
2023/01/21 01:34:39;;;;;;;12.60;8.50;;;;;;;;;;5072753;28;20040;-65
2023/01/21 01:37:06;;;;;;;13.70;8.80;;;;;;;;;;5072108;28;20063;-64
2023/01/21 01:39:34;;;;;;;12.60;8.25;;;;;;;;;;5073281;28;20041;-65
2023/01/21 01:42:02;;;;;;;13.20;8.27;;;;;;;;;;5073284;28;20044;-64
2023/01/21 01:45:08;;;;;;;13.27;8.30;;;;;;;;;;5072042;28;20136;-65
2023/01/21 01:47:41;;;;;;;14.38;9.25;;;;;;;;;;4991741;28;20056;-64
2023/01/21 01:50:11;;;;;;;14.45;8.90;;;;;;;;;;4991696;28;20505;-65
2023/01/21 01:52:39;;;;;;;13.52;8.68;;;;;;;;;;5036553;28;20052;-65
2023/01/21 01:55:06;;;;;;;12.85;8.68;;;;;;;;;;5073119;28;20039;-65
2023/01/21 01:57:35;;;;;;;14.07;8.90;;;;;;;;;;5071683;28;20044;-65
2023/01/21 02:00:07;;;;;;;14.00;8.88;;;;;;;;;;5072768;28;20049;-65
2023/01/21 02:02:39;;;;;;;13.90;8.87;;;;;;;;;;5072922;28;20127;-65
2023/01/21 02:05:07;;;;;;;15.60;9.52;;;;;;;;;;5072793;28;20106;-65
2023/01/21 02:07:38;;;;;;;12.40;8.48;;;;;;;;;;5072937;28;20444;-65
2023/01/21 02:10:06;;;;;;;13.23;9.18;;;;;;;;;;5072744;28;20037;-65
2023/01/21 02:12:35;;;;;;;14.73;9.27;;;;;;;;;;5072802;28;20040;-65
2023/01/21 02:15:03;;;;;;;14.18;8.50;;;;;;;;;;5072775;28;20043;-65
2023/01/21 02:17:51;;;;;;;13.80;8.48;;;;;;;;;;5072695;28;20508;-64
2023/01/21 02:20:18;;;;;;;12.07;8.43;;;;;;;;;;5072663;28;20036;-65
2023/01/21 02:22:58;;;;;;;13.60;8.60;;;;;;;;;;5071442;28;20052;-65
2023/01/21 02:25:28;;;;;;;14.30;9.43;;;;;;;;;;5072552;28;20516;-65
2023/01/21 02:28:08;;;;;;;11.75;7.75;;;;;;;;;;5072576;28;20071;-65
2023/01/21 02:30:39;;;;;;;13.02;8.02;;;;;;;;;;5072514;28;20048;-64
2023/01/21 02:33:09;;;;;;;14.45;8.30;;;;;;;;;;5071434;28;20563;-64
2023/01/21 02:35:48;;;;;;;12.98;7.97;;;;;;;;;;5072497;28;20047;-64
2023/01/21 02:38:22;;;;;;;13.43;8.88;;;;;;;;;;5072458;28;20052;-65
2023/01/21 02:41:08;;;;;;;14.40;9.18;;;;;;;;;;5072356;28;20051;-65
2023/01/21 02:43:36;;;;;;;13.25;8.93;;;;;;;;;;5071176;28;20140;-65
2023/01/21 02:46:13;;;;;;;12.98;8.30;;;;;;;;;;5071022;28;20048;-65
2023/01/21 02:49:03;;;;;;;14.60;9.13;;;;;;;;;;5072775;28;20044;-65
2023/01/21 02:51:31;;;;;;;14.80;8.75;;;;;;;;;;5062657;28;20052;-64
2023/01/21 02:53:58;;;;;;;11.48;8.00;;;;;;;;;;5072513;28;20036;-65
2023/01/21 02:56:27;;;;;;;14.75;9.25;;;;;;;;;;5072511;28;20101;-65
2023/01/21 02:59:00;;;;;;;15.13;9.18;;;;;;;;;;5072388;28;20040;-65
2023/01/21 03:01:46;;;;;;;14.43;8.77;;;;;;;;;;5072095;28;20050;-65
2023/01/21 03:04:13;;;;;;;13.32;8.00;;;;;;;;;;5072263;28;20044;-65
2023/01/21 03:06:47;;;;;;;12.73;8.40;;;;;;;;;;5072281;28;20045;-65
2023/01/21 03:09:15;;;;;;;12.60;8.45;;;;;;;;;;5072190;28;20124;-65
2023/01/21 03:11:45;;;;;;;14.18;9.20;;;;;;;;;;5071850;28;20040;-65
2023/01/21 03:17:33;;;;;;;14.45;8.95;;;;;;;;;;5069479;28;20052;-65
2023/01/21 03:20:13;;;;;;;12.57;8.27;;;;;;;;;;5072041;28;20072;-65
2023/01/21 03:22:42;;;;;;;13.18;7.82;;;;;;;;;;5072325;28;20437;-65
2023/01/21 03:25:11;;;;;;;13.75;8.32;;;;;;;;;;5072179;28;20090;-65
2023/01/21 03:27:40;;;;;;;13.07;8.52;;;;;;;;;;5072045;28;20044;-65
2023/01/21 03:30:17;;;;;;;12.70;8.40;;;;;;;;;;5072134;28;20428;-65
2023/01/21 03:32:48;;;;;;;13.88;8.68;;;;;;;;;;5072056;28;20072;-65
2023/01/21 03:35:37;;;;;;;13.10;8.65;;;;;;;;;;5072120;28;20041;-65
2023/01/21 03:38:16;;;;;;;14.35;8.70;;;;;;;;;;5071938;28;20049;-65
2023/01/21 03:40:50;;;;;;;12.75;8.40;;;;;;;;;;5072023;28;20458;-65
2023/01/21 03:43:17;;;;;;;14.63;8.98;;;;;;;;;;5070380;28;20509;-65
2023/01/21 03:45:45;;;;;;;14.88;9.40;;;;;;;;;;5071844;28;20045;-65
2023/01/21 03:48:27;;;;;;;15.15;9.57;;;;;;;;;;5071758;28;20040;-65
2023/01/21 03:50:59;;;;;;;15.95;9.52;;;;;;;;;;5071826;28;20646;-65
2023/01/21 03:53:27;;;;;;;15.75;9.25;;;;;;;;;;5071767;28;20047;-65
2023/01/21 03:55:54;;;;;;;15.00;9.65;;;;;;;;;;5070520;28;20040;-65
2023/01/21 03:58:22;;;;;;;15.05;8.85;;;;;;;;;;5074003;28;20036;-65
2023/01/21 04:00:49;;;;;;;15.38;9.50;;;;;;;;;;5075159;28;20583;-65
2023/01/21 04:03:17;;;;;;;14.93;10.00;;;;;;;;;;5075475;28;20047;-65
2023/01/21 04:05:44;;;;;;;16.02;9.98;;;;;;;;;;5075409;28;20122;-65
2023/01/21 04:08:12;;;;;;;14.68;9.27;;;;;;;;;;5075165;28;20040;-65
2023/01/21 04:10:39;;;;;;;14.07;9.50;;;;;;;;;;5074966;28;20044;-65
2023/01/21 04:13:07;;;;;;;16.73;10.20;;;;;;;;;;5075242;28;20048;-65
2023/01/21 04:15:34;;;;;;;13.45;9.35;;;;;;;;;;5075056;28;20521;-65
2023/01/21 04:18:02;;;;;;;14.73;9.18;;;;;;;;;;5074886;28;20040;-65
2023/01/21 04:20:29;;;;;;;13.73;9.50;;;;;;;;;;5074752;28;20478;-65
2023/01/21 04:22:57;;;;;;;13.65;8.63;;;;;;;;;;5074877;28;20044;-65
2023/01/21 04:25:24;;;;;;;14.32;9.32;;;;;;;;;;5074844;28;20039;-64
2023/01/21 04:27:52;;;;;;;16.55;10.15;;;;;;;;;;5074804;28;20045;-64
2023/01/21 04:30:19;;;;;;;16.17;10.30;;;;;;;;;;5074668;28;20028;-64
2023/01/21 04:32:47;;;;;;;17.98;10.93;;;;;;;;;;5074554;28;20045;-64
2023/01/21 04:35:14;;;;;;;17.02;10.88;;;;;;;;;;5074560;28;20044;-64
2023/01/21 04:37:41;;;;;;;17.60;10.25;;;;;;;;;;5073219;28;20109;-64
2023/01/21 04:40:09;;;;;;;18.75;11.25;;;;;;;;;;5073188;28;20383;-63
2023/01/21 04:42:37;;;;;;;17.02;11.10;;;;;;;;;;5073122;28;20506;-64
2023/01/21 04:45:04;;;;;;;17.83;10.50;;;;;;;;;;5074549;28;20066;-63
2023/01/21 04:47:32;;;;;;;17.35;10.80;;;;;;;;;;5074307;28;20087;-63
2023/01/21 04:50:01;;;;;;;17.65;10.43;;;;;;;;;;5073117;28;20143;-64
2023/01/21 04:52:29;;;;;;;16.83;10.90;;;;;;;;;;5074364;28;20560;-63
2023/01/21 04:54:56;;;;;;;17.02;9.80;;;;;;;;;;5074295;28;20044;-63
2023/01/21 04:57:24;;;;;;;15.15;10.05;;;;;;;;;;5074099;28;20114;-63
2023/01/21 04:59:51;;;;;;;18.08;10.57;;;;;;;;;;5073767;28;20064;-64
2023/01/21 05:02:19;;;;;;;17.98;10.50;;;;;;;;;;5074029;28;20106;-64
2023/01/21 05:04:46;;;;;;;16.85;9.88;;;;;;;;;;5073921;28;20067;-64
2023/01/21 05:07:13;;;;;;;17.55;10.65;;;;;;;;;;5074217;28;20448;-64
2023/01/21 05:09:41;;;;;;;17.27;10.48;;;;;;;;;;5073658;28;20123;-64
2023/01/21 05:12:09;;;;;;;16.05;10.10;;;;;;;;;;5072589;28;20494;-64
2023/01/21 05:14:36;;;;;;;16.98;10.77;;;;;;;;;;5073768;28;20551;-64
2023/01/21 05:17:04;;;;;;;16.77;10.40;;;;;;;;;;5073744;28;20405;-65
2023/01/21 05:19:31;;;;;;;18.05;10.15;;;;;;;;;;5073684;28;20090;-64
2023/01/21 05:21:59;;;;;;;15.70;9.43;;;;;;;;;;5073527;28;20047;-64
2023/01/21 05:24:26;;;;;;;15.95;10.27;;;;;;;;;;5073544;28;20080;-64
2023/01/21 05:26:54;;;;;;;19.88;11.52;;;;;;;;;;5073666;28;20045;-64
2023/01/21 05:29:21;;;;;;;18.33;11.15;;;;;;;;;;5073388;28;20045;-63
2023/01/21 05:31:49;;;;;;;19.52;10.60;;;;;;;;;;5073409;28;20072;-63
2023/01/21 05:34:16;;;;;;;17.60;10.18;;;;;;;;;;5073386;28;20040;-63
2023/01/21 05:36:44;;;;;;;20.15;11.07;;;;;;;;;;5073238;28;20494;-63
2023/01/21 05:39:11;;;;;;;18.10;10.23;;;;;;;;;;5073304;28;20106;-64
2023/01/21 05:41:39;;;;;;;16.27;9.52;;;;;;;;;;5073006;28;20120;-63
2023/01/21 05:44:07;;;;;;;20.33;11.25;;;;;;;;;;5073213;28;20153;-63
2023/01/21 05:46:35;;;;;;;19.25;11.90;;;;;;;;;;5073011;28;20066;-64
2023/01/21 05:49:02;;;;;;;18.48;10.80;;;;;;;;;;5078680;28;20372;-65
2023/01/21 05:51:30;;;;;;;20.77;11.10;;;;;;;;;;5082243;28;20482;-65
2023/01/21 05:53:57;;;;;;;18.15;10.57;;;;;;;;;;5083611;28;20036;-64
2023/01/21 05:56:25;;;;;;;16.95;10.02;;;;;;;;;;5081063;28;20049;-64
2023/01/21 05:58:52;;;;;;;18.08;11.85;;;;;;;;;;5087446;28;20032;-64
2023/01/21 06:01:20;;;;;;;16.90;11.10;;;;;;;;;;5080022;28;20040;-63
2023/01/21 06:03:47;;;;;;;18.90;13.45;;;;;;;;;;5071562;28;20067;-67
2023/01/21 06:06:15;;;;;;;20.23;11.05;;;;;;;;;;5072855;28;20123;-61
2023/01/21 06:08:42;;;;;;;18.58;10.90;;;;;;;;;;5071157;28;20489;-61
2023/01/21 06:11:09;;;;;;;25.30;15.48;;;;;;;;;;5073671;28;20044;-61
2023/01/21 06:13:37;;;;;;;27.38;18.38;;;;;;;;;;5076502;28;20048;-61
2023/01/21 06:16:04;;;;;;;25.10;15.23;;;;;;;;;;5072447;28;20045;-61
2023/01/21 06:18:32;;;;;;;26.23;15.73;;;;;;;;;;5072436;28;20040;-61
2023/01/21 06:21:00;;;;;;;19.15;11.80;;;;;;;;;;5070308;28;20071;-65
2023/01/21 06:23:27;;;;;;;16.10;10.60;;;;;;;;;;5072278;28;20056;-65
2023/01/21 06:25:59;;;;;;;17.60;11.15;;;;;;;;;;5071940;28;20443;-65
2023/01/21 06:28:26;;;;;;;17.85;11.68;;;;;;;;;;5070718;28;20128;-65
2023/01/21 06:30:54;;;;;;;18.38;11.30;;;;;;;;;;5071619;28;20097;-73
2023/01/21 06:33:22;;;;;;;19.98;13.15;;;;;;;;;;5069793;28;20106;-72
2023/01/21 06:35:49;;;;;;;25.90;16.90;;;;;;;;;;5072586;28;20394;-69
2023/01/21 06:38:16;;;;;;;25.45;17.42;;;;;;;;;;5072369;28;20044;-70
2023/01/21 06:40:44;;;;;;;19.75;13.02;;;;;;;;;;5072258;28;20087;-76
2023/01/21 06:43:11;;;;;;;17.58;11.27;;;;;;;;;;5071986;28;20052;-76
2023/01/21 06:45:39;;;;;;;24.35;13.52;;;;;;;;;;5070923;28;20056;-70
2023/01/21 06:48:06;;;;;;;22.35;14.73;;;;;;;;;;5052822;28;20045;-69
2023/01/21 06:50:34;;;;;;;20.63;13.40;;;;;;;;;;5066757;28;20043;-70
2023/01/21 06:53:02;;;;;;;18.25;11.90;;;;;;;;;;5063012;28;20083;-70
2023/01/21 06:55:29;;;;;;;15.57;10.10;;;;;;;;;;5073385;28;20036;-69
2023/01/21 06:57:57;;;;;;;15.88;9.63;;;;;;;;;;5066357;28;20070;-70
2023/01/21 07:00:24;;;;;;;13.82;9.90;;;;;;;;;;5063499;28;20041;-71
2023/01/21 07:02:55;;;;;;;16.52;10.43;;;;;;;;;;5052908;28;20376;-69
2023/01/21 07:05:22;;;;;;;17.67;11.40;;;;;;;;;;5050572;28;20071;-75
2023/01/21 07:07:53;;;;;;;17.70;11.60;;;;;;;;;;5078131;28;20040;-71
2023/01/21 07:10:20;;;;;;;19.30;12.60;;;;;;;;;;5070329;28;20131;-71
2023/01/21 07:12:48;;;;;;;20.52;13.10;;;;;;;;;;5072178;28;20094;-70
2023/01/21 07:15:15;;;;;;;16.02;11.05;;;;;;;;;;5070455;28;20055;-71
2023/01/21 07:17:43;;;;;;;14.63;9.95;;;;;;;;;;5071895;28;20033;-72
2023/01/21 07:20:11;;;;;;;13.88;9.65;;;;;;;;;;5071965;28;20453;-70
2023/01/21 07:22:39;;;;;;;16.25;10.43;;;;;;;;;;5071537;28;20036;-72
2023/01/21 07:25:07;;;;;;;16.48;9.57;;;;;;;;;;5070638;28;20044;-72
2023/01/21 07:27:34;;;;;;;18.42;10.68;;;;;;;;;;5068980;28;20044;-69
2023/01/21 07:30:02;;;;;;;15.98;10.15;;;;;;;;;;5061951;28;20032;-70
2023/01/21 07:32:29;;;;;;;20.70;12.07;;;;;;;;;;5066022;28;20048;-72
2023/01/21 07:34:56;;;;;;;14.32;9.43;;;;;;;;;;5066299;28;20036;-70
2023/01/21 07:37:24;;;;;;;17.48;10.63;;;;;;;;;;5068336;28;20051;-73
2023/01/21 07:39:51;;;;;;;18.17;9.75;;;;;;;;;;5068956;28;20480;-70
2023/01/21 07:42:21;;;;;;;12.45;8.32;;;;;;;;;;5073526;28;20118;-70
2023/01/21 07:44:48;;;;;;;13.57;9.05;;;;;;;;;;5075482;28;20033;-67
2023/01/21 07:47:16;;;;;;;14.32;9.05;;;;;;;;;;5071155;28;20052;-67
2023/01/21 07:49:43;;;;;;;15.90;9.90;;;;;;;;;;5075344;28;20490;-68
2023/01/21 07:52:10;;;;;;;13.88;9.23;;;;;;;;;;5067024;28;20090;-66
2023/01/21 07:54:38;;;;;;;13.95;9.35;;;;;;;;;;5062620;28;20486;-66
2023/01/21 07:57:05;;;;;;;12.48;8.88;;;;;;;;;;5065170;28;20048;-66
2023/01/21 07:59:33;;;;;;;15.27;10.13;;;;;;;;;;5075267;28;20045;-66
2023/01/21 08:02:00;;;;;;;16.23;9.85;;;;;;;;;;5073286;28;20394;-65
2023/01/21 08:04:28;;;;;;;14.38;10.23;;;;;;;;;;5075451;28;20119;-66
2023/01/21 08:06:55;;;;;;;13.55;8.98;;;;;;;;;;5073045;28;20044;-66
2023/01/21 08:09:24;;;;;;;18.33;9.23;;;;;;;;;;5073021;28;20070;-67
2023/01/21 08:11:52;;;;;;;14.57;10.35;;;;;;;;;;5062942;28;20490;-66
2023/01/21 08:14:19;;;;;;;18.08;10.93;;;;;;;;;;5073839;28;20069;-67
2023/01/21 08:16:46;;;;;;;15.88;9.88;;;;;;;;;;5067396;28;20044;-67
2023/01/21 08:19:14;;;;;;;11.52;6.95;;;;;;;;;;5072693;28;20078;-67
2023/01/21 08:21:41;;;;;;;12.02;7.85;;;;;;;;;;5072217;28;20037;-68
2023/01/21 08:24:09;;;;;;;13.85;8.90;;;;;;;;;;5074468;28;20523;-67
2023/01/21 08:26:37;;;;;;;14.27;9.30;;;;;;;;;;5074400;28;20032;-67
2023/01/21 08:29:04;;;;;;;13.77;9.82;;;;;;;;;;5077394;28;20029;-69
2023/01/21 08:31:32;;;;;;;12.27;8.73;;;;;;;;;;5077429;28;20493;-68
2023/01/21 08:33:59;;;;;;;14.43;9.38;;;;;;;;;;5078412;28;20102;-69
2023/01/21 08:36:27;;;;;;;13.73;8.80;;;;;;;;;;5074329;28;20048;-68
2023/01/21 08:38:54;;;;;;;13.50;8.95;;;;;;;;;;5070751;28;20037;-68
2023/01/21 08:41:22;;;;;;;12.63;8.68;;;;;;;;;;5068948;28;20248;-68
2023/01/21 08:43:49;;;;;;;12.07;8.48;;;;;;;;;;5071362;28;20048;-68
2023/01/21 08:46:17;;;;;;;11.52;8.45;;;;;;;;;;5070083;28;20132;-69
2023/01/21 08:48:44;;;;;;;12.93;8.85;;;;;;;;;;5072622;28;20044;-68
2023/01/21 08:51:12;;;;;;;11.48;7.85;;;;;;;;;;5075946;28;20032;-68
2023/01/21 08:53:39;;;;;;;14.57;9.02;;;;;;;;;;5067304;28;20123;-68
2023/01/21 08:56:07;;;;;;;11.00;8.00;;;;;;;;;;5054016;28;20111;-68
2023/01/21 08:58:34;;;;;;;13.75;8.43;;;;;;;;;;5069200;28;20047;-68
2023/01/21 09:01:10;;;;;;;11.85;8.90;;;;;;;;;;5074190;28;20078;-68
2023/01/21 09:03:38;;;;;;;13.93;9.50;;;;;;;;;;5073830;28;20059;-68
2023/01/21 09:06:06;;;;;;;16.50;9.68;;;;;;;;;;5074026;28;20417;-68
2023/01/21 09:08:35;;;;;;;14.55;8.80;;;;;;;;;;5073882;28;20054;-68
2023/01/21 09:11:04;;;;;;;11.30;7.78;;;;;;;;;;5072613;28;20063;-68
2023/01/21 09:13:36;;;;;;;11.40;7.60;;;;;;;;;;5073925;28;20108;-68
2023/01/21 09:16:08;;;;;;;13.50;8.50;;;;;;;;;;5073747;28;20049;-67
2023/01/21 09:18:36;;;;;;;13.13;10.07;;;;;;;;;;5073728;28;20037;-67
2023/01/21 09:21:04;;;;;;;13.57;9.57;;;;;;;;;;5073659;28;20498;-67
2023/01/21 09:23:33;;;;;;;14.23;10.43;;;;;;;;;;5073474;28;20049;-67
2023/01/21 09:26:03;;;;;;;15.27;10.93;;;;;;;;;;5073680;28;20094;-68
2023/01/21 09:28:32;;;;;;;13.60;9.77;;;;;;;;;;5073522;28;20071;-68
2023/01/21 09:31:01;;;;;;;14.75;10.07;;;;;;;;;;5072152;28;20093;-68
2023/01/21 09:33:29;;;;;;;12.32;8.35;;;;;;;;;;5073403;28;20451;-68
2023/01/21 09:35:58;;;;;;;10.57;7.57;;;;;;;;;;5073273;28;20037;-68
2023/01/21 09:38:26;;;;;;;10.23;8.07;;;;;;;;;;5072908;28;20055;-68
2023/01/21 09:40:54;;;;;;;10.18;7.38;;;;;;;;;;5073142;28;20090;-68
2023/01/21 09:43:38;;;;;;;8.13;6.03;;;;;;;;;;5073006;28;20058;-68
2023/01/21 09:46:07;;;;;;;11.70;8.23;;;;;;;;;;5073450;28;20055;-68
2023/01/21 09:48:37;;;;;;;10.40;7.45;;;;;;;;;;5073315;28;20131;-68
2023/01/21 09:51:14;;;;;;;9.48;7.30;;;;;;;;;;5072967;28;20128;-68
2023/01/21 09:53:47;;;;;;;11.45;8.77;;;;;;;;;;5072422;28;20090;-68
2023/01/21 09:56:35;;;;;;;11.05;7.70;;;;;;;;;;5072663;28;20041;-67
2023/01/21 09:59:18;;;;;;;11.32;8.30;;;;;;;;;;5072759;28;20089;-68
2023/01/21 10:01:48;;;;;;;10.80;7.07;;;;;;;;;;5072640;28;20423;-68
2023/01/21 10:04:15;;;;;;;11.15;7.43;;;;;;;;;;5072689;28;20105;-68
2023/01/21 10:06:46;;;;;;;10.73;7.35;;;;;;;;;;5072635;28;20048;-68
2023/01/21 10:09:21;;;;;;;11.05;8.18;;;;;;;;;;5072666;28;20042;-68
2023/01/21 10:11:54;;;;;;;11.52;8.25;;;;;;;;;;5072919;28;20060;-68
2023/01/21 10:14:25;;;;;;;12.00;8.43;;;;;;;;;;5072526;28;20045;-67
2023/01/21 10:16:56;;;;;;;11.93;8.90;;;;;;;;;;5061873;28;20090;-67
2023/01/21 10:19:28;;;;;;;12.57;8.90;;;;;;;;;;5071701;28;20044;-67
2023/01/21 10:21:59;;;;;;;12.43;8.82;;;;;;;;;;5072017;28;20044;-67
2023/01/21 10:24:37;;;;;;;12.52;8.20;;;;;;;;;;5071152;28;20657;-67
2023/01/21 10:27:05;;;;;;;22.55;12.50;;;;;;;;;;5072427;28;20045;-67
2023/01/21 10:29:35;;;;;;;18.52;11.43;;;;;;;;;;5072294;28;20097;-67
2023/01/21 10:32:06;;;;;;;14.57;10.02;;;;;;;;;;5072367;28;20086;-66
2023/01/21 10:34:38;;;;;;;13.48;9.35;;;;;;;;;;5056001;28;20497;-67
2023/01/21 10:37:21;;;;;;;17.10;11.00;;;;;;;;;;5052045;28;20048;-67
2023/01/21 10:40:07;;;;;;;22.67;12.85;;;;;;;;;;5072082;28;20066;-67
2023/01/21 10:42:34;;;;;;;22.33;11.73;;;;;;;;;;5067852;28;20052;-67
2023/01/21 10:45:17;;;;;;;15.38;9.93;;;;;;;;;;5072089;28;20547;-67
2023/01/21 10:47:48;;;;;;;17.92;12.35;;;;;;;;;;5070725;28;20060;-67
2023/01/21 10:50:24;;;;;;;14.23;9.65;;;;;;;;;;5072108;28;20046;-67
2023/01/21 10:52:54;;;;;;;15.05;9.35;;;;;;;;;;5072585;28;20064;-68
2023/01/21 10:55:40;;;;;;;19.08;12.38;;;;;;;;;;5070614;28;20037;-68
2023/01/21 10:58:17;;;;;;;20.70;13.15;;;;;;;;;;5052392;28;20068;-68
2023/01/21 11:00:47;;;;;;;13.88;9.48;;;;;;;;;;5057442;28;20494;-67
2023/01/21 11:03:37;;;;;;;16.10;10.30;;;;;;;;;;5072076;28;20102;-68
2023/01/21 11:06:07;;;;;;;11.70;8.40;;;;;;;;;;5071112;28;20032;-68
2023/01/21 11:08:34;;;;;;;21.00;13.02;;;;;;;;;;5072573;28;20052;-69
2023/01/21 11:11:02;;;;;;;19.73;11.57;;;;;;;;;;5073735;28;20045;-67
2023/01/21 11:13:30;;;;;;;14.75;8.48;;;;;;;;;;5074168;28;20441;-67
2023/01/21 11:15:58;;;;;;;12.60;8.77;;;;;;;;;;5073809;28;20032;-66
2023/01/21 11:18:26;;;;;;;12.43;8.43;;;;;;;;;;5075609;28;20406;-66
2023/01/21 11:20:55;;;;;;;11.60;8.23;;;;;;;;;;5072481;28;20032;-66
2023/01/21 11:23:34;;;;;;;12.75;8.50;;;;;;;;;;5086531;28;20076;-65
2023/01/21 11:26:06;;;;;;;15.73;9.30;;;;;;;;;;5080367;28;20128;-66
2023/01/21 11:28:36;;;;;;;13.05;9.07;;;;;;;;;;5079897;28;20044;-66
2023/01/21 11:31:04;;;;;;;14.50;9.93;;;;;;;;;;5075171;28;20040;-65
2023/01/21 11:33:31;;;;;;;13.27;9.30;;;;;;;;;;5078172;28;20445;-66
2023/01/21 11:36:08;;;;;;;13.35;8.68;;;;;;;;;;5063281;28;20075;-66
2023/01/21 11:38:36;;;;;;;16.42;10.45;;;;;;;;;;5080007;28;20029;-66
2023/01/21 11:41:04;;;;;;;13.18;9.35;;;;;;;;;;5089462;28;20048;-67
2023/01/21 11:43:36;;;;;;;13.00;8.70;;;;;;;;;;5077945;28;20084;-67
2023/01/21 11:46:25;;;;;;;10.80;7.53;;;;;;;;;;5074002;28;20062;-67
2023/01/21 11:48:57;;;;;;;13.27;9.18;;;;;;;;;;5073808;28;20397;-66
2023/01/21 11:51:25;;;;;;;14.60;9.52;;;;;;;;;;5072176;28;20051;-67
2023/01/21 11:54:11;;;;;;;12.43;8.32;;;;;;;;;;5074082;28;20422;-67
2023/01/21 11:56:39;;;;;;;12.73;8.50;;;;;;;;;;5074951;28;20036;-67
2023/01/21 11:59:32;;;;;;;13.57;9.10;;;;;;;;;;5083106;28;20033;-67
2023/01/21 12:02:06;;;;;;;13.90;8.82;;;;;;;;;;5072339;28;20140;-67
2023/01/21 12:04:35;;;;;;;11.50;7.78;;;;;;;;;;5075040;28;20120;-66
2023/01/21 12:07:03;;;;;;;12.43;8.80;;;;;;;;;;5074733;28;20033;-67
2023/01/21 12:09:31;;;;;;;14.57;9.63;;;;;;;;;;5074870;28;20044;-67
2023/01/21 12:12:10;;;;;;;12.85;9.00;;;;;;;;;;5074977;28;20040;-68
2023/01/21 12:14:53;;;;;;;13.48;9.50;;;;;;;;;;5074771;28;20493;-67
2023/01/21 12:17:32;;;;;;;13.75;9.30;;;;;;;;;;5074085;28;20037;-67
2023/01/21 12:20:04;;;;;;;13.38;8.93;;;;;;;;;;5074769;28;20033;-65
2023/01/21 12:22:42;;;;;;;12.88;9.40;;;;;;;;;;5070698;28;20044;-65
2023/01/21 12:25:37;;;;;;;15.30;9.63;;;;;;;;;;5073767;28;20091;-66
2023/01/21 12:28:04;;;;;;;15.15;9.77;;;;;;;;;;5065500;28;20486;-71
2023/01/21 12:30:38;;;;;;;15.07;10.35;;;;;;;;;;5074075;28;20036;-62
2023/01/21 12:33:16;;;;;;;17.48;10.50;;;;;;;;;;5074579;28;20040;-63
2023/01/21 12:35:55;;;;;;;15.82;10.63;;;;;;;;;;5074538;28;20048;-62
2023/01/21 12:38:31;;;;;;;16.67;10.80;;;;;;;;;;5074732;28;20075;-63
2023/01/21 12:41:05;;;;;;;15.52;10.52;;;;;;;;;;5073515;28;20055;-62
2023/01/21 12:43:37;;;;;;;14.43;10.20;;;;;;;;;;5074101;28;20492;-62
2023/01/21 12:46:09;;;;;;;16.02;10.40;;;;;;;;;;5074459;28;20051;-61
2023/01/21 12:48:40;;;;;;;14.63;10.02;;;;;;;;;;5074411;28;20522;-63
2023/01/21 12:51:10;;;;;;;19.10;11.88;;;;;;;;;;5074343;28;20045;-62
2023/01/21 12:53:46;;;;;;;17.67;11.40;;;;;;;;;;5074245;28;20037;-62
2023/01/21 12:56:16;;;;;;;15.25;10.30;;;;;;;;;;5073920;28;20075;-63
2023/01/21 12:58:48;;;;;;;13.82;8.90;;;;;;;;;;5074154;28;20049;-62
2023/01/21 13:01:20;;;;;;;13.55;9.98;;;;;;;;;;5074357;28;20044;-63
2023/01/21 13:03:58;;;;;;;16.95;9.40;;;;;;;;;;5074246;28;20490;-63
2023/01/21 13:06:29;;;;;;;14.90;10.05;;;;;;;;;;5074209;28;20064;-62
2023/01/21 13:09:22;;;;;;;17.63;9.52;;;;;;;;;;5073058;28;20044;-63
2023/01/21 13:11:55;;;;;;;13.38;9.23;;;;;;;;;;5073992;28;20050;-63
2023/01/21 13:14:26;;;;;;;12.43;8.70;;;;;;;;;;5073861;28;20443;-62
2023/01/21 13:16:55;;;;;;;13.95;8.95;;;;;;;;;;5074094;28;20094;-62
2023/01/21 13:19:23;;;;;;;11.23;8.80;;;;;;;;;;5073757;28;20044;-62
2023/01/21 13:21:58;;;;;;;10.88;7.47;;;;;;;;;;5073837;28;20039;-62
2023/01/21 13:24:25;;;;;;;;;;;;;;;;;;5074142;28;20052;-62
2023/01/21 13:27:05;;;;;;;10.77;7.47;;;;;;;;;;5073960;28;20269;-62
2023/01/21 13:29:32;;;;;;;15.13;9.07;;;;;;;;;;5073551;28;20481;-62
2023/01/21 13:32:12;;;;;;;18.73;12.25;;;;;;;;;;5073539;28;20393;-62
2023/01/21 13:34:50;;;;;;;11.30;7.65;;;;;;;;;;5073241;28;20036;-61
2023/01/21 13:37:18;;;;;;;13.02;7.50;;;;;;;;;;5073401;28;20052;-62
2023/01/21 13:40:10;;;;;;;11.18;7.35;;;;;;;;;;5073322;28;20115;-61
2023/01/21 13:42:43;;;;;;;12.10;7.82;;;;;;;;;;5073179;28;20061;-61
2023/01/21 13:45:31;;;;;;;13.00;8.77;;;;;;;;;;5073550;28;20386;-61
2023/01/21 13:48:10;;;;;;;11.35;7.75;;;;;;;;;;5073119;28;20128;-60
2023/01/21 13:50:47;;;;;;;9.45;6.97;;;;;;;;;;5073090;28;20068;-60
2023/01/21 13:53:37;;;;;;;8.27;5.82;;;;;;;;;;5073338;28;20049;-61
2023/01/21 13:56:08;;;;;;;10.13;6.47;;;;;;;;;;5073204;28;20474;-61
2023/01/21 13:58:51;;;;;;;9.60;6.28;;;;;;;;;;5073055;28;20192;-60
2023/01/21 14:01:24;;;;;;;12.77;7.53;;;;;;;;;;5072912;28;20482;-60
2023/01/21 14:04:00;;;;;;;9.75;7.00;;;;;;;;;;5072925;28;20063;-61
2023/01/21 14:06:29;;;;;;;8.95;6.32;;;;;;;;;;5072888;28;20044;-60
2023/01/21 14:08:57;;;;;;;10.35;6.63;;;;;;;;;;5072719;28;20555;-61
2023/01/21 14:11:28;;;;;;;10.55;7.25;;;;;;;;;;5072930;28;20025;-61
2023/01/21 14:14:02;;;;;;;16.48;10.65;;;;;;;;;;5072907;28;20438;-61
2023/01/21 14:16:29;;;;;;;12.85;7.90;;;;;;;;;;5073149;28;20418;-60
2023/01/21 14:19:06;;;;;;;11.07;6.88;;;;;;;;;;5072831;28;20122;-60
2023/01/21 14:21:36;;;;;;;12.40;6.25;;;;;;;;;;5072811;28;20047;-61
2023/01/21 14:24:22;;;;;;;15.75;7.85;;;;;;;;;;5072681;28;20137;-61
2023/01/21 14:26:50;;;;;;;20.65;12.57;;;;;;;;;;5072582;28;20047;-61
2023/01/21 14:29:26;;;;;;;21.48;14.02;;;;;;;;;;5072546;28;20036;-61
2023/01/21 14:31:53;;;;;;;72.22;44.78;;;;;;;;;;5072555;28;20051;-61
2023/01/21 14:34:21;;;;;;;14.60;9.02;;;;;;;;;;5072482;28;20041;-61
2023/01/21 14:36:52;;;;;;;25.02;14.35;;;;;;;;;;5072605;28;20123;-62
2023/01/21 14:39:40;;;;;;;23.42;14.15;;;;;;;;;;5072447;28;20402;-61
2023/01/21 14:42:13;;;;;;;47.78;27.55;;;;;;;;;;5070677;28;20049;-61
2023/01/21 14:44:49;;;;;;;9.90;6.40;;;;;;;;;;5072281;28;20050;-61
2023/01/21 14:47:24;;;;;;;13.95;8.73;;;;;;;;;;5072343;28;20043;-64
2023/01/21 14:49:53;;;;;;;13.57;7.60;;;;;;;;;;5070735;28;20040;-64